sensor_id;sensor_type;location;lat;lon;timestamp;temperature;humidity
12307;DHT22;6216;51.146;7.008;2022-09-09T00:01:06;19.70;99.90
12307;DHT22;6216;51.146;7.008;2022-09-09T00:03:42;19.70;99.90
12307;DHT22;6216;51.146;7.008;2022-09-09T00:06:21;19.60;99.90
12307;DHT22;6216;51.146;7.008;2022-09-09T00:08:57;19.50;99.90
12307;DHT22;6216;51.146;7.008;2022-09-09T00:11:34;19.50;99.90
12307;DHT22;6216;51.146;7.008;2022-09-09T00:14:11;19.50;99.90
12307;DHT22;6216;51.146;7.008;2022-09-09T00:16:43;19.50;99.90
12307;DHT22;6216;51.146;7.008;2022-09-09T00:19:20;19.50;99.90
12307;DHT22;6216;51.146;7.008;2022-09-09T00:21:59;19.40;99.90
12307;DHT22;6216;51.146;7.008;2022-09-09T00:24:38;19.30;99.90
12307;DHT22;6216;51.146;7.008;2022-09-09T00:27:11;19.20;99.90
12307;DHT22;6216;51.146;7.008;2022-09-09T00:29:45;19.10;99.90
12307;DHT22;6216;51.146;7.008;2022-09-09T00:32:17;19.10;99.90
12307;DHT22;6216;51.146;7.008;2022-09-09T00:34:49;19.10;99.90
12307;DHT22;6216;51.146;7.008;2022-09-09T00:37:19;19.10;99.90
12307;DHT22;6216;51.146;7.008;2022-09-09T00:39:49;19.10;99.90
12307;DHT22;6216;51.146;7.008;2022-09-09T00:42:24;19.10;99.90
12307;DHT22;6216;51.146;7.008;2022-09-09T00:44:59;19.10;99.90
12307;DHT22;6216;51.146;7.008;2022-09-09T00:47:45;19.10;99.90
12307;DHT22;6216;51.146;7.008;2022-09-09T00:50:32;19.00;99.90
12307;DHT22;6216;51.146;7.008;2022-09-09T00:53:19;19.10;99.90
12307;DHT22;6216;51.146;7.008;2022-09-09T00:55:56;19.10;99.90
12307;DHT22;6216;51.146;7.008;2022-09-09T00:58:28;19.10;99.90
12307;DHT22;6216;51.146;7.008;2022-09-09T01:01:00;19.00;99.90
12307;DHT22;6216;51.146;7.008;2022-09-09T01:03:38;19.10;99.90
12307;DHT22;6216;51.146;7.008;2022-09-09T01:06:20;19.00;99.90
12307;DHT22;6216;51.146;7.008;2022-09-09T01:09:12;19.00;99.90
12307;DHT22;6216;51.146;7.008;2022-09-09T01:11:57;19.00;99.90
12307;DHT22;6216;51.146;7.008;2022-09-09T01:14:40;18.90;99.90
12307;DHT22;6216;51.146;7.008;2022-09-09T01:17:14;18.80;99.90
12307;DHT22;6216;51.146;7.008;2022-09-09T01:19:53;18.80;99.90
12307;DHT22;6216;51.146;7.008;2022-09-09T01:22:32;18.80;99.90
12307;DHT22;6216;51.146;7.008;2022-09-09T01:25:29;18.70;99.90
12307;DHT22;6216;51.146;7.008;2022-09-09T01:28:01;18.70;99.90
12307;DHT22;6216;51.146;7.008;2022-09-09T01:30:31;18.60;99.90
12307;DHT22;6216;51.146;7.008;2022-09-09T01:33:00;18.60;99.90
12307;DHT22;6216;51.146;7.008;2022-09-09T01:35:36;18.60;99.90
12307;DHT22;6216;51.146;7.008;2022-09-09T01:38:06;18.60;99.90
12307;DHT22;6216;51.146;7.008;2022-09-09T01:40:34;18.50;99.90
12307;DHT22;6216;51.146;7.008;2022-09-09T01:43:04;18.40;99.90
12307;DHT22;6216;51.146;7.008;2022-09-09T01:45:33;18.40;99.90
12307;DHT22;6216;51.146;7.008;2022-09-09T01:48:02;18.40;99.90
12307;DHT22;6216;51.146;7.008;2022-09-09T01:50:30;18.30;99.90
12307;DHT22;6216;51.146;7.008;2022-09-09T01:52:59;18.30;99.90
12307;DHT22;6216;51.146;7.008;2022-09-09T01:55:32;18.40;99.90
12307;DHT22;6216;51.146;7.008;2022-09-09T01:58:11;18.40;99.90
12307;DHT22;6216;51.146;7.008;2022-09-09T02:00:51;18.30;99.90
12307;DHT22;6216;51.146;7.008;2022-09-09T02:03:25;18.30;99.90
12307;DHT22;6216;51.146;7.008;2022-09-09T02:06:00;18.30;99.90
12307;DHT22;6216;51.146;7.008;2022-09-09T02:08:36;18.30;99.90
12307;DHT22;6216;51.146;7.008;2022-09-09T02:11:10;18.20;99.90
12307;DHT22;6216;51.146;7.008;2022-09-09T02:13:43;18.20;99.90
12307;DHT22;6216;51.146;7.008;2022-09-09T02:16:14;18.10;99.90
12307;DHT22;6216;51.146;7.008;2022-09-09T02:18:48;18.00;99.90
12307;DHT22;6216;51.146;7.008;2022-09-09T02:21:17;17.90;99.90
12307;DHT22;6216;51.146;7.008;2022-09-09T02:23:47;17.90;99.90
12307;DHT22;6216;51.146;7.008;2022-09-09T02:26:19;17.90;99.90
12307;DHT22;6216;51.146;7.008;2022-09-09T02:28:54;18.00;99.90
12307;DHT22;6216;51.146;7.008;2022-09-09T02:31:24;17.90;99.90
12307;DHT22;6216;51.146;7.008;2022-09-09T02:33:57;17.90;99.90
12307;DHT22;6216;51.146;7.008;2022-09-09T02:36:30;17.90;99.90
12307;DHT22;6216;51.146;7.008;2022-09-09T02:39:00;17.90;99.90
12307;DHT22;6216;51.146;7.008;2022-09-09T02:41:31;17.90;99.90
12307;DHT22;6216;51.146;7.008;2022-09-09T02:44:08;17.90;99.90
12307;DHT22;6216;51.146;7.008;2022-09-09T02:46:48;17.90;99.90
12307;DHT22;6216;51.146;7.008;2022-09-09T02:49:24;18.00;99.90
12307;DHT22;6216;51.146;7.008;2022-09-09T02:51:59;18.00;99.90
12307;DHT22;6216;51.146;7.008;2022-09-09T02:54:30;18.00;99.90
12307;DHT22;6216;51.146;7.008;2022-09-09T02:57:03;17.90;99.90
12307;DHT22;6216;51.146;7.008;2022-09-09T02:59:35;17.90;99.90
12307;DHT22;6216;51.146;7.008;2022-09-09T03:02:04;18.00;99.90
12307;DHT22;6216;51.146;7.008;2022-09-09T03:04:32;18.00;99.90
12307;DHT22;6216;51.146;7.008;2022-09-09T03:07:00;18.10;99.90
12307;DHT22;6216;51.146;7.008;2022-09-09T03:09:30;18.10;99.90
12307;DHT22;6216;51.146;7.008;2022-09-09T03:11:59;18.10;99.90
12307;DHT22;6216;51.146;7.008;2022-09-09T03:14:27;18.10;99.90
12307;DHT22;6216;51.146;7.008;2022-09-09T03:16:56;18.10;99.90
12307;DHT22;6216;51.146;7.008;2022-09-09T03:19:27;18.10;99.90
12307;DHT22;6216;51.146;7.008;2022-09-09T03:21:56;18.10;99.90
12307;DHT22;6216;51.146;7.008;2022-09-09T03:24:24;18.00;99.90
12307;DHT22;6216;51.146;7.008;2022-09-09T03:26:52;17.90;99.90
12307;DHT22;6216;51.146;7.008;2022-09-09T03:29:22;17.80;99.90
12307;DHT22;6216;51.146;7.008;2022-09-09T03:31:50;17.80;99.90
12307;DHT22;6216;51.146;7.008;2022-09-09T03:34:19;17.80;99.90
12307;DHT22;6216;51.146;7.008;2022-09-09T03:36:47;17.90;99.90
12307;DHT22;6216;51.146;7.008;2022-09-09T03:39:16;17.80;99.90
12307;DHT22;6216;51.146;7.008;2022-09-09T03:41:44;17.90;99.90
12307;DHT22;6216;51.146;7.008;2022-09-09T03:44:14;17.80;99.90
12307;DHT22;6216;51.146;7.008;2022-09-09T03:46:42;17.80;99.90
12307;DHT22;6216;51.146;7.008;2022-09-09T03:49:10;17.80;99.90
12307;DHT22;6216;51.146;7.008;2022-09-09T03:51:40;17.80;99.90
12307;DHT22;6216;51.146;7.008;2022-09-09T03:54:09;17.70;99.90
12307;DHT22;6216;51.146;7.008;2022-09-09T03:56:36;17.70;99.90
12307;DHT22;6216;51.146;7.008;2022-09-09T03:59:05;17.60;99.90
12307;DHT22;6216;51.146;7.008;2022-09-09T04:01:33;17.60;99.90
12307;DHT22;6216;51.146;7.008;2022-09-09T04:04:01;17.60;99.90
12307;DHT22;6216;51.146;7.008;2022-09-09T04:06:29;17.50;99.90
12307;DHT22;6216;51.146;7.008;2022-09-09T04:08:58;17.50;99.90
12307;DHT22;6216;51.146;7.008;2022-09-09T04:11:28;17.50;99.90
12307;DHT22;6216;51.146;7.008;2022-09-09T04:13:56;17.50;99.90
12307;DHT22;6216;51.146;7.008;2022-09-09T04:16:24;17.50;99.90
12307;DHT22;6216;51.146;7.008;2022-09-09T04:18:52;17.50;99.90
12307;DHT22;6216;51.146;7.008;2022-09-09T04:21:20;17.50;99.90
12307;DHT22;6216;51.146;7.008;2022-09-09T04:23:49;17.50;99.90
12307;DHT22;6216;51.146;7.008;2022-09-09T04:26:19;17.50;99.90
12307;DHT22;6216;51.146;7.008;2022-09-09T04:28:47;17.60;99.90
12307;DHT22;6216;51.146;7.008;2022-09-09T04:31:17;17.50;99.90
12307;DHT22;6216;51.146;7.008;2022-09-09T04:33:47;17.50;99.90
12307;DHT22;6216;51.146;7.008;2022-09-09T04:36:15;17.50;99.90
12307;DHT22;6216;51.146;7.008;2022-09-09T04:38:43;17.40;99.90
12307;DHT22;6216;51.146;7.008;2022-09-09T04:41:12;17.50;99.90
12307;DHT22;6216;51.146;7.008;2022-09-09T04:43:41;17.50;99.90
12307;DHT22;6216;51.146;7.008;2022-09-09T04:46:09;17.50;99.90
12307;DHT22;6216;51.146;7.008;2022-09-09T04:48:37;17.50;99.90
12307;DHT22;6216;51.146;7.008;2022-09-09T04:51:08;17.50;99.90
12307;DHT22;6216;51.146;7.008;2022-09-09T04:53:36;17.50;99.90
12307;DHT22;6216;51.146;7.008;2022-09-09T04:56:06;17.50;99.90
12307;DHT22;6216;51.146;7.008;2022-09-09T04:58:37;17.50;99.90
12307;DHT22;6216;51.146;7.008;2022-09-09T05:01:08;17.40;99.90
12307;DHT22;6216;51.146;7.008;2022-09-09T05:03:37;17.40;99.90
12307;DHT22;6216;51.146;7.008;2022-09-09T05:06:06;17.40;99.90
12307;DHT22;6216;51.146;7.008;2022-09-09T05:08:35;17.40;99.90
12307;DHT22;6216;51.146;7.008;2022-09-09T05:11:04;17.40;99.90
12307;DHT22;6216;51.146;7.008;2022-09-09T05:13:39;17.40;99.90
12307;DHT22;6216;51.146;7.008;2022-09-09T05:16:08;17.50;99.90
12307;DHT22;6216;51.146;7.008;2022-09-09T05:18:37;17.50;99.90
12307;DHT22;6216;51.146;7.008;2022-09-09T05:21:06;17.50;99.90
12307;DHT22;6216;51.146;7.008;2022-09-09T05:23:34;17.40;99.90
12307;DHT22;6216;51.146;7.008;2022-09-09T05:26:03;17.40;99.90
12307;DHT22;6216;51.146;7.008;2022-09-09T05:28:37;17.40;99.90
12307;DHT22;6216;51.146;7.008;2022-09-09T05:31:10;17.40;99.90
12307;DHT22;6216;51.146;7.008;2022-09-09T05:33:43;17.40;99.90
12307;DHT22;6216;51.146;7.008;2022-09-09T05:36:13;17.40;99.90
12307;DHT22;6216;51.146;7.008;2022-09-09T05:38:43;17.40;99.90
12307;DHT22;6216;51.146;7.008;2022-09-09T05:41:14;17.40;99.90
12307;DHT22;6216;51.146;7.008;2022-09-09T05:43:46;17.40;99.90
12307;DHT22;6216;51.146;7.008;2022-09-09T05:46:18;17.40;99.90
12307;DHT22;6216;51.146;7.008;2022-09-09T05:48:48;17.40;99.90
12307;DHT22;6216;51.146;7.008;2022-09-09T05:51:18;17.40;99.90
12307;DHT22;6216;51.146;7.008;2022-09-09T05:53:48;17.40;99.90
12307;DHT22;6216;51.146;7.008;2022-09-09T05:56:17;17.40;99.90
12307;DHT22;6216;51.146;7.008;2022-09-09T05:58:46;17.50;99.90
12307;DHT22;6216;51.146;7.008;2022-09-09T06:01:18;17.40;99.90
12307;DHT22;6216;51.146;7.008;2022-09-09T06:03:48;17.40;99.90
12307;DHT22;6216;51.146;7.008;2022-09-09T06:06:18;17.40;99.90
12307;DHT22;6216;51.146;7.008;2022-09-09T06:08:50;17.40;99.90
12307;DHT22;6216;51.146;7.008;2022-09-09T06:11:19;17.30;99.90
12307;DHT22;6216;51.146;7.008;2022-09-09T06:13:48;17.30;99.90
12307;DHT22;6216;51.146;7.008;2022-09-09T06:16:22;17.30;99.90
12307;DHT22;6216;51.146;7.008;2022-09-09T06:18:51;17.30;99.90
12307;DHT22;6216;51.146;7.008;2022-09-09T06:21:21;17.30;99.90
12307;DHT22;6216;51.146;7.008;2022-09-09T06:23:50;17.30;99.90
12307;DHT22;6216;51.146;7.008;2022-09-09T06:26:27;17.30;99.90
12307;DHT22;6216;51.146;7.008;2022-09-09T06:28:57;17.30;99.90
12307;DHT22;6216;51.146;7.008;2022-09-09T06:31:27;17.40;99.90
12307;DHT22;6216;51.146;7.008;2022-09-09T06:33:58;17.40;99.90
12307;DHT22;6216;51.146;7.008;2022-09-09T06:36:27;17.40;99.90
12307;DHT22;6216;51.146;7.008;2022-09-09T06:38:56;17.30;99.90
12307;DHT22;6216;51.146;7.008;2022-09-09T06:41:25;17.30;99.90
12307;DHT22;6216;51.146;7.008;2022-09-09T06:43:53;17.30;99.90
12307;DHT22;6216;51.146;7.008;2022-09-09T06:46:23;17.30;99.90
12307;DHT22;6216;51.146;7.008;2022-09-09T06:48:55;17.30;99.90
12307;DHT22;6216;51.146;7.008;2022-09-09T06:51:26;17.30;99.90
12307;DHT22;6216;51.146;7.008;2022-09-09T06:53:56;17.30;99.90
12307;DHT22;6216;51.146;7.008;2022-09-09T06:56:25;17.30;99.90
12307;DHT22;6216;51.146;7.008;2022-09-09T06:58:55;17.40;99.90
12307;DHT22;6216;51.146;7.008;2022-09-09T07:01:26;17.50;99.90
12307;DHT22;6216;51.146;7.008;2022-09-09T07:03:57;17.50;99.90
12307;DHT22;6216;51.146;7.008;2022-09-09T07:06:26;17.50;99.90
12307;DHT22;6216;51.146;7.008;2022-09-09T07:08:56;17.60;99.90
12307;DHT22;6216;51.146;7.008;2022-09-09T07:11:27;17.60;99.90
12307;DHT22;6216;51.146;7.008;2022-09-09T07:13:57;17.60;99.90
12307;DHT22;6216;51.146;7.008;2022-09-09T07:16:26;17.70;99.90
12307;DHT22;6216;51.146;7.008;2022-09-09T07:18:57;17.70;99.90
12307;DHT22;6216;51.146;7.008;2022-09-09T07:21:26;17.70;99.90
12307;DHT22;6216;51.146;7.008;2022-09-09T07:23:55;17.80;99.90
12307;DHT22;6216;51.146;7.008;2022-09-09T07:26:25;17.80;99.90
12307;DHT22;6216;51.146;7.008;2022-09-09T07:28:53;17.80;99.90
12307;DHT22;6216;51.146;7.008;2022-09-09T07:31:24;17.90;99.90
12307;DHT22;6216;51.146;7.008;2022-09-09T07:33:53;18.00;99.90
12307;DHT22;6216;51.146;7.008;2022-09-09T07:36:24;18.00;99.90
12307;DHT22;6216;51.146;7.008;2022-09-09T07:39:00;18.10;99.90
12307;DHT22;6216;51.146;7.008;2022-09-09T07:41:31;18.20;99.90
12307;DHT22;6216;51.146;7.008;2022-09-09T07:44:04;18.30;99.90
12307;DHT22;6216;51.146;7.008;2022-09-09T07:46:33;18.30;99.90
12307;DHT22;6216;51.146;7.008;2022-09-09T07:49:02;18.40;99.90
12307;DHT22;6216;51.146;7.008;2022-09-09T07:51:33;18.40;99.90
12307;DHT22;6216;51.146;7.008;2022-09-09T07:54:03;18.40;99.90
12307;DHT22;6216;51.146;7.008;2022-09-09T07:56:32;18.50;99.90
12307;DHT22;6216;51.146;7.008;2022-09-09T07:59:00;18.50;99.90
12307;DHT22;6216;51.146;7.008;2022-09-09T08:01:30;18.60;99.90
12307;DHT22;6216;51.146;7.008;2022-09-09T08:04:00;18.70;99.90
12307;DHT22;6216;51.146;7.008;2022-09-09T08:06:29;18.70;99.90
12307;DHT22;6216;51.146;7.008;2022-09-09T08:08:59;18.80;99.90
12307;DHT22;6216;51.146;7.008;2022-09-09T08:11:28;18.80;99.90
12307;DHT22;6216;51.146;7.008;2022-09-09T08:14:03;19.00;99.90
12307;DHT22;6216;51.146;7.008;2022-09-09T08:16:33;19.00;99.90
12307;DHT22;6216;51.146;7.008;2022-09-09T08:19:03;18.90;99.90
12307;DHT22;6216;51.146;7.008;2022-09-09T08:21:32;18.90;99.90
12307;DHT22;6216;51.146;7.008;2022-09-09T08:24:03;18.80;99.90
12307;DHT22;6216;51.146;7.008;2022-09-09T08:26:33;18.90;99.90
12307;DHT22;6216;51.146;7.008;2022-09-09T08:29:03;18.80;99.90
12307;DHT22;6216;51.146;7.008;2022-09-09T08:31:33;18.80;99.90
12307;DHT22;6216;51.146;7.008;2022-09-09T08:34:02;18.80;99.90
12307;DHT22;6216;51.146;7.008;2022-09-09T08:36:32;18.80;99.90
12307;DHT22;6216;51.146;7.008;2022-09-09T08:39:03;18.80;99.90
12307;DHT22;6216;51.146;7.008;2022-09-09T08:41:52;18.90;99.90
12307;DHT22;6216;51.146;7.008;2022-09-09T08:44:30;19.00;99.90
12307;DHT22;6216;51.146;7.008;2022-09-09T08:47:06;19.00;99.90
12307;DHT22;6216;51.146;7.008;2022-09-09T08:49:50;19.10;99.90
12307;DHT22;6216;51.146;7.008;2022-09-09T08:52:27;19.20;99.90
12307;DHT22;6216;51.146;7.008;2022-09-09T08:55:02;19.20;99.90
12307;DHT22;6216;51.146;7.008;2022-09-09T08:57:32;19.30;99.90
12307;DHT22;6216;51.146;7.008;2022-09-09T09:00:02;19.20;99.90
12307;DHT22;6216;51.146;7.008;2022-09-09T09:02:38;19.20;99.90
12307;DHT22;6216;51.146;7.008;2022-09-09T09:05:17;19.20;99.90
12307;DHT22;6216;51.146;7.008;2022-09-09T09:07:57;19.20;99.90
12307;DHT22;6216;51.146;7.008;2022-09-09T09:10:37;19.20;99.90
12307;DHT22;6216;51.146;7.008;2022-09-09T09:13:14;19.20;99.90
12307;DHT22;6216;51.146;7.008;2022-09-09T09:15:44;19.30;99.90
12307;DHT22;6216;51.146;7.008;2022-09-09T09:18:20;19.40;99.90
12307;DHT22;6216;51.146;7.008;2022-09-09T09:20:54;19.50;99.90
12307;DHT22;6216;51.146;7.008;2022-09-09T09:23:26;19.60;99.90
12307;DHT22;6216;51.146;7.008;2022-09-09T09:25:59;19.70;99.90
12307;DHT22;6216;51.146;7.008;2022-09-09T09:28:30;19.70;99.90
12307;DHT22;6216;51.146;7.008;2022-09-09T09:31:03;19.80;99.90
12307;DHT22;6216;51.146;7.008;2022-09-09T09:33:36;19.80;99.90
12307;DHT22;6216;51.146;7.008;2022-09-09T09:36:06;19.80;99.90
12307;DHT22;6216;51.146;7.008;2022-09-09T09:38:36;19.90;99.90
12307;DHT22;6216;51.146;7.008;2022-09-09T09:41:33;19.80;99.90
12307;DHT22;6216;51.146;7.008;2022-09-09T09:44:03;19.80;99.90
12307;DHT22;6216;51.146;7.008;2022-09-09T09:46:31;19.70;99.90
12307;DHT22;6216;51.146;7.008;2022-09-09T09:49:00;19.60;99.90
12307;DHT22;6216;51.146;7.008;2022-09-09T09:51:30;19.60;99.90
12307;DHT22;6216;51.146;7.008;2022-09-09T09:54:25;19.60;99.90
12307;DHT22;6216;51.146;7.008;2022-09-09T09:56:56;19.60;99.90
12307;DHT22;6216;51.146;7.008;2022-09-09T09:59:36;19.60;99.90
12307;DHT22;6216;51.146;7.008;2022-09-09T10:02:18;19.60;99.90
12307;DHT22;6216;51.146;7.008;2022-09-09T10:04:46;19.70;99.90
12307;DHT22;6216;51.146;7.008;2022-09-09T10:07:18;19.90;99.90
12307;DHT22;6216;51.146;7.008;2022-09-09T10:09:50;20.00;99.90
12307;DHT22;6216;51.146;7.008;2022-09-09T10:12:29;20.10;99.90
12307;DHT22;6216;51.146;7.008;2022-09-09T10:15:05;20.10;99.90
12307;DHT22;6216;51.146;7.008;2022-09-09T10:17:40;20.10;99.90
12307;DHT22;6216;51.146;7.008;2022-09-09T10:20:25;20.20;99.90
12307;DHT22;6216;51.146;7.008;2022-09-09T10:23:08;20.20;99.90
12307;DHT22;6216;51.146;7.008;2022-09-09T10:25:54;20.20;99.90
12307;DHT22;6216;51.146;7.008;2022-09-09T10:28:37;20.20;99.90
12307;DHT22;6216;51.146;7.008;2022-09-09T10:31:19;20.20;99.90
12307;DHT22;6216;51.146;7.008;2022-09-09T10:33:55;20.30;99.90
12307;DHT22;6216;51.146;7.008;2022-09-09T10:36:25;20.30;99.90
12307;DHT22;6216;51.146;7.008;2022-09-09T10:38:59;20.30;99.90
12307;DHT22;6216;51.146;7.008;2022-09-09T10:41:43;20.40;99.90
12307;DHT22;6216;51.146;7.008;2022-09-09T10:44:21;20.60;99.90
12307;DHT22;6216;51.146;7.008;2022-09-09T10:47:05;20.80;99.90
12307;DHT22;6216;51.146;7.008;2022-09-09T10:49:47;20.90;99.90
12307;DHT22;6216;51.146;7.008;2022-09-09T10:52:23;20.90;99.90
12307;DHT22;6216;51.146;7.008;2022-09-09T10:54:57;20.90;99.90
12307;DHT22;6216;51.146;7.008;2022-09-09T10:57:29;20.90;99.90
12307;DHT22;6216;51.146;7.008;2022-09-09T11:00:03;20.80;99.90
12307;DHT22;6216;51.146;7.008;2022-09-09T11:02:33;20.80;99.90
12307;DHT22;6216;51.146;7.008;2022-09-09T11:05:05;20.70;99.90
12307;DHT22;6216;51.146;7.008;2022-09-09T11:07:39;20.70;99.90
12307;DHT22;6216;51.146;7.008;2022-09-09T11:10:18;20.80;99.90
12307;DHT22;6216;51.146;7.008;2022-09-09T11:12:53;20.90;99.90
12307;DHT22;6216;51.146;7.008;2022-09-09T11:15:31;20.90;99.90
12307;DHT22;6216;51.146;7.008;2022-09-09T11:18:04;20.80;99.90
12307;DHT22;6216;51.146;7.008;2022-09-09T11:20:34;20.80;99.90
12307;DHT22;6216;51.146;7.008;2022-09-09T11:23:04;20.70;99.90
12307;DHT22;6216;51.146;7.008;2022-09-09T11:25:41;20.80;99.90
12307;DHT22;6216;51.146;7.008;2022-09-09T11:28:25;20.80;99.90
12307;DHT22;6216;51.146;7.008;2022-09-09T11:31:08;20.70;99.90
12307;DHT22;6216;51.146;7.008;2022-09-09T11:34:07;20.70;99.90
12307;DHT22;6216;51.146;7.008;2022-09-09T11:36:58;20.60;99.90
12307;DHT22;6216;51.146;7.008;2022-09-09T11:39:42;20.40;99.90
12307;DHT22;6216;51.146;7.008;2022-09-09T11:42:17;20.40;99.90
12307;DHT22;6216;51.146;7.008;2022-09-09T11:44:46;20.30;99.90
12307;DHT22;6216;51.146;7.008;2022-09-09T11:47:23;20.20;99.90
12307;DHT22;6216;51.146;7.008;2022-09-09T11:50:07;20.20;99.90
12307;DHT22;6216;51.146;7.008;2022-09-09T11:52:38;20.20;99.90
12307;DHT22;6216;51.146;7.008;2022-09-09T11:55:10;20.20;99.90
12307;DHT22;6216;51.146;7.008;2022-09-09T11:57:39;20.30;99.90
12307;DHT22;6216;51.146;7.008;2022-09-09T12:00:33;20.40;99.90
12307;DHT22;6216;51.146;7.008;2022-09-09T12:03:03;20.40;99.90
12307;DHT22;6216;51.146;7.008;2022-09-09T12:05:40;20.30;99.90
12307;DHT22;6216;51.146;7.008;2022-09-09T12:08:10;20.30;99.90
12307;DHT22;6216;51.146;7.008;2022-09-09T12:10:40;20.30;99.90
12307;DHT22;6216;51.146;7.008;2022-09-09T12:13:14;20.30;99.90
12307;DHT22;6216;51.146;7.008;2022-09-09T12:15:47;20.30;99.90
12307;DHT22;6216;51.146;7.008;2022-09-09T12:18:22;20.30;99.90
12307;DHT22;6216;51.146;7.008;2022-09-09T12:20:57;20.20;99.90
12307;DHT22;6216;51.146;7.008;2022-09-09T12:23:32;20.20;99.90
12307;DHT22;6216;51.146;7.008;2022-09-09T12:26:26;20.10;99.90
12307;DHT22;6216;51.146;7.008;2022-09-09T12:29:03;20.10;99.90
12307;DHT22;6216;51.146;7.008;2022-09-09T12:31:36;20.10;99.90
12307;DHT22;6216;51.146;7.008;2022-09-09T12:34:16;20.00;99.90
12307;DHT22;6216;51.146;7.008;2022-09-09T12:36:51;20.00;99.90
12307;DHT22;6216;51.146;7.008;2022-09-09T12:39:27;20.00;99.90
12307;DHT22;6216;51.146;7.008;2022-09-09T12:41:57;20.00;99.90
12307;DHT22;6216;51.146;7.008;2022-09-09T12:44:26;20.10;99.90
12307;DHT22;6216;51.146;7.008;2022-09-09T12:46:56;20.10;99.90
12307;DHT22;6216;51.146;7.008;2022-09-09T12:49:30;20.20;99.90
12307;DHT22;6216;51.146;7.008;2022-09-09T12:52:03;20.60;99.90
12307;DHT22;6216;51.146;7.008;2022-09-09T12:54:34;21.50;99.90
12307;DHT22;6216;51.146;7.008;2022-09-09T12:57:02;22.60;99.90
12307;DHT22;6216;51.146;7.008;2022-09-09T12:59:36;22.90;99.90
12307;DHT22;6216;51.146;7.008;2022-09-09T13:02:16;22.90;99.90
12307;DHT22;6216;51.146;7.008;2022-09-09T13:04:46;22.50;99.90
12307;DHT22;6216;51.146;7.008;2022-09-09T13:07:17;22.10;99.90
12307;DHT22;6216;51.146;7.008;2022-09-09T13:09:46;21.50;99.90
12307;DHT22;6216;51.146;7.008;2022-09-09T13:12:18;20.80;99.90
12307;DHT22;6216;51.146;7.008;2022-09-09T13:14:49;20.30;99.90
12307;DHT22;6216;51.146;7.008;2022-09-09T13:17:21;20.10;99.90
12307;DHT22;6216;51.146;7.008;2022-09-09T13:19:51;20.10;99.90
12307;DHT22;6216;51.146;7.008;2022-09-09T13:22:23;20.20;99.90
12307;DHT22;6216;51.146;7.008;2022-09-09T13:25:00;20.70;99.90
12307;DHT22;6216;51.146;7.008;2022-09-09T13:27:31;21.40;99.90
12307;DHT22;6216;51.146;7.008;2022-09-09T13:30:01;21.50;99.90
12307;DHT22;6216;51.146;7.008;2022-09-09T13:32:29;21.40;99.90
12307;DHT22;6216;51.146;7.008;2022-09-09T13:35:00;21.30;99.90
12307;DHT22;6216;51.146;7.008;2022-09-09T13:37:33;21.20;99.90
12307;DHT22;6216;51.146;7.008;2022-09-09T13:40:02;21.10;99.90
12307;DHT22;6216;51.146;7.008;2022-09-09T13:42:33;20.90;99.90
12307;DHT22;6216;51.146;7.008;2022-09-09T13:45:03;20.80;99.90
12307;DHT22;6216;51.146;7.008;2022-09-09T13:47:33;20.70;99.90
12307;DHT22;6216;51.146;7.008;2022-09-09T13:50:18;20.80;99.90
12307;DHT22;6216;51.146;7.008;2022-09-09T13:52:47;21.50;99.90
12307;DHT22;6216;51.146;7.008;2022-09-09T13:55:15;22.80;99.90
12307;DHT22;6216;51.146;7.008;2022-09-09T13:57:51;24.90;99.90
12307;DHT22;6216;51.146;7.008;2022-09-09T14:00:19;27.30;99.90
12307;DHT22;6216;51.146;7.008;2022-09-09T14:02:47;28.40;97.90
12307;DHT22;6216;51.146;7.008;2022-09-09T14:05:17;28.20;95.80
12307;DHT22;6216;51.146;7.008;2022-09-09T14:07:45;27.50;97.10
12307;DHT22;6216;51.146;7.008;2022-09-09T14:10:19;26.70;98.10
12307;DHT22;6216;51.146;7.008;2022-09-09T14:12:47;26.50;99.10
12307;DHT22;6216;51.146;7.008;2022-09-09T14:15:15;26.80;99.60
12307;DHT22;6216;51.146;7.008;2022-09-09T14:17:43;27.20;97.90
12307;DHT22;6216;51.146;7.008;2022-09-09T14:20:11;26.80;98.70
12307;DHT22;6216;51.146;7.008;2022-09-09T14:22:43;26.20;99.50
12307;DHT22;6216;51.146;7.008;2022-09-09T14:25:11;25.60;99.90
12307;DHT22;6216;51.146;7.008;2022-09-09T14:27:41;25.00;99.90
12307;DHT22;6216;51.146;7.008;2022-09-09T14:30:10;24.30;99.90
12307;DHT22;6216;51.146;7.008;2022-09-09T14:32:38;23.90;99.90
12307;DHT22;6216;51.146;7.008;2022-09-09T14:35:07;23.50;99.90
12307;DHT22;6216;51.146;7.008;2022-09-09T14:37:35;23.10;99.90
12307;DHT22;6216;51.146;7.008;2022-09-09T14:40:05;22.80;99.90
12307;DHT22;6216;51.146;7.008;2022-09-09T14:42:34;22.40;99.90
12307;DHT22;6216;51.146;7.008;2022-09-09T14:45:02;22.10;99.90
12307;DHT22;6216;51.146;7.008;2022-09-09T14:47:30;21.80;99.90
12307;DHT22;6216;51.146;7.008;2022-09-09T14:49:58;21.40;99.90
12307;DHT22;6216;51.146;7.008;2022-09-09T14:52:27;21.10;99.90
12307;DHT22;6216;51.146;7.008;2022-09-09T14:54:55;21.00;99.90
12307;DHT22;6216;51.146;7.008;2022-09-09T14:57:25;20.80;99.90
12307;DHT22;6216;51.146;7.008;2022-09-09T14:59:53;20.70;99.90
12307;DHT22;6216;51.146;7.008;2022-09-09T15:02:20;20.60;99.90
12307;DHT22;6216;51.146;7.008;2022-09-09T15:04:48;20.40;99.90
12307;DHT22;6216;51.146;7.008;2022-09-09T15:07:17;20.20;99.90
12307;DHT22;6216;51.146;7.008;2022-09-09T15:09:45;20.10;99.90
12307;DHT22;6216;51.146;7.008;2022-09-09T15:12:15;20.10;99.90
12307;DHT22;6216;51.146;7.008;2022-09-09T15:14:46;20.00;99.90
12307;DHT22;6216;51.146;7.008;2022-09-09T15:17:14;20.00;99.90
12307;DHT22;6216;51.146;7.008;2022-09-09T15:19:42;20.00;99.90
12307;DHT22;6216;51.146;7.008;2022-09-09T15:22:10;20.00;99.90
12307;DHT22;6216;51.146;7.008;2022-09-09T15:24:38;20.00;99.90
12307;DHT22;6216;51.146;7.008;2022-09-09T15:27:06;20.10;99.90
12307;DHT22;6216;51.146;7.008;2022-09-09T15:29:34;20.20;99.90
12307;DHT22;6216;51.146;7.008;2022-09-09T15:32:03;20.40;99.90
12307;DHT22;6216;51.146;7.008;2022-09-09T15:34:31;20.50;99.90
12307;DHT22;6216;51.146;7.008;2022-09-09T15:36:59;20.50;99.90
12307;DHT22;6216;51.146;7.008;2022-09-09T15:39:27;20.60;99.90
12307;DHT22;6216;51.146;7.008;2022-09-09T15:41:55;20.70;99.90
12307;DHT22;6216;51.146;7.008;2022-09-09T15:44:24;20.70;99.90
12307;DHT22;6216;51.146;7.008;2022-09-09T15:46:52;20.60;99.90
12307;DHT22;6216;51.146;7.008;2022-09-09T15:49:24;20.70;99.90
12307;DHT22;6216;51.146;7.008;2022-09-09T15:51:53;20.60;99.90
12307;DHT22;6216;51.146;7.008;2022-09-09T15:54:23;20.60;99.90
12307;DHT22;6216;51.146;7.008;2022-09-09T15:56:53;20.60;99.90
12307;DHT22;6216;51.146;7.008;2022-09-09T15:59:22;20.50;99.90
12307;DHT22;6216;51.146;7.008;2022-09-09T16:01:50;20.40;99.90
12307;DHT22;6216;51.146;7.008;2022-09-09T16:04:19;20.40;99.90
12307;DHT22;6216;51.146;7.008;2022-09-09T16:06:52;20.40;99.90
12307;DHT22;6216;51.146;7.008;2022-09-09T16:09:20;20.50;99.90
12307;DHT22;6216;51.146;7.008;2022-09-09T16:11:48;20.50;99.90
12307;DHT22;6216;51.146;7.008;2022-09-09T16:14:18;20.50;99.90
12307;DHT22;6216;51.146;7.008;2022-09-09T16:16:46;20.50;99.90